Time;durP1;ratioP1;P1;durP2;ratioP2;P2;SDS_P1;SDS_P2;PMS_P1;PMS_P2;Temp;Humidity;BMP_temperature;BMP_pressure;BME280_temperature;BME280_humidity;BME280_pressure;Samples;Min_cycle;Max_cycle;Signal;HPM_P1;HPM_P2
2022/12/29 00:01:44;;;;;;;14.18;4.78;;;;;;;;;;6229289;28;20053;-64
2022/12/29 00:04:44;;;;;;;13.63;5.18;;;;;;;;;;6228150;28;20054;-64
2022/12/29 00:07:45;;;;;;;10.38;4.10;;;;;;;;;;6228626;28;20057;-67
2022/12/29 00:10:45;;;;;;;13.68;4.38;;;;;;;;;;6231444;28;20160;-65
2022/12/29 00:17:05;;;;;;;13.32;5.00;;;;;;;;;;6226482;28;20045;-65
2022/12/29 00:37:00;;;;;;;9.35;4.10;;;;;;;;;;6227330;28;20061;-64
2022/12/29 00:46:41;;;;;;;12.27;5.30;;;;;;;;;;6226389;28;20063;-66
2022/12/29 00:49:42;;;;;;;11.95;4.53;;;;;;;;;;6225900;28;20408;-64
2022/12/29 00:52:42;;;;;;;12.88;5.47;;;;;;;;;;6224933;28;20045;-64
2022/12/29 00:55:44;;;;;;;13.60;6.15;;;;;;;;;;6222712;28;20176;-63
2022/12/29 00:58:44;;;;;;;11.90;5.32;;;;;;;;;;6230253;28;20132;-64
2022/12/29 01:01:46;;;;;;;10.82;4.97;;;;;;;;;;6262710;28;20471;-64
2022/12/29 01:04:47;;;;;;;11.20;5.05;;;;;;;;;;6251637;28;20053;-64
2022/12/29 01:07:48;;;;;;;13.23;4.50;;;;;;;;;;6240532;28;20041;-64
2022/12/29 01:10:58;;;;;;;11.75;5.93;;;;;;;;;;6251841;28;20056;-64
2022/12/29 01:13:59;;;;;;;13.13;5.32;;;;;;;;;;6243806;28;20047;-66
2022/12/29 01:16:59;;;;;;;13.02;6.28;;;;;;;;;;6243532;28;20042;-65
2022/12/29 01:20:01;;;;;;;10.60;4.95;;;;;;;;;;6265703;28;20103;-67
2022/12/29 01:23:01;;;;;;;9.50;4.85;;;;;;;;;;6244363;28;20045;-64
2022/12/29 01:26:13;;;;;;;13.13;4.97;;;;;;;;;;6239544;28;20492;-66
2022/12/29 01:29:13;;;;;;;12.15;4.82;;;;;;;;;;6244015;28;20052;-65
2022/12/29 01:32:14;;;;;;;12.57;5.30;;;;;;;;;;6243658;28;20349;-64
2022/12/29 01:35:15;;;;;;;13.05;4.53;;;;;;;;;;6239998;28;20064;-64
2022/12/29 01:38:15;;;;;;;10.52;5.55;;;;;;;;;;6254832;28;20795;-64
2022/12/29 01:41:16;;;;;;;9.45;4.10;;;;;;;;;;6238236;28;20566;-64
2022/12/29 01:44:50;;;;;;;11.98;5.10;;;;;;;;;;6247544;28;20444;-64
2022/12/29 01:48:03;;;;;;;11.20;4.25;;;;;;;;;;6268896;28;20096;-68
2022/12/29 01:51:08;;;;;;;12.07;4.22;;;;;;;;;;6258667;28;20056;-63
2022/12/29 01:54:38;;;;;;;12.85;5.03;;;;;;;;;;6264668;28;20060;-65
2022/12/29 01:57:44;;;;;;;10.13;4.13;;;;;;;;;;6269760;28;20061;-64
2022/12/29 02:00:45;;;;;;;13.40;4.47;;;;;;;;;;6269140;28;20079;-64
2022/12/29 02:03:48;;;;;;;14.38;5.07;;;;;;;;;;6270777;28;20049;-65
2022/12/29 02:06:53;;;;;;;11.77;4.60;;;;;;;;;;6262496;28;20055;-64
2022/12/29 02:09:55;;;;;;;12.13;4.82;;;;;;;;;;6264238;28;20049;-68
2022/12/29 02:12:57;;;;;;;13.57;5.10;;;;;;;;;;6261660;28;20052;-66
2022/12/29 02:16:04;;;;;;;12.95;5.93;;;;;;;;;;6265607;28;20045;-64
2022/12/29 02:19:22;;;;;;;15.75;8.45;;;;;;;;;;6246716;28;20053;-66
2022/12/29 02:22:29;;;;;;;16.80;6.18;;;;;;;;;;6243662;28;20041;-67
2022/12/29 02:25:57;;;;;;;11.80;6.65;;;;;;;;;;6246628;28;20056;-65
2022/12/29 02:29:25;;;;;;;13.00;5.03;;;;;;;;;;6269617;28;20092;-65
2022/12/29 02:32:41;;;;;;;12.75;4.65;;;;;;;;;;6246963;28;20059;-63
2022/12/29 02:35:57;;;;;;;11.90;4.30;;;;;;;;;;6244527;28;20061;-64
2022/12/29 02:39:07;;;;;;;10.23;4.68;;;;;;;;;;6243003;28;20082;-64
2022/12/29 02:42:38;;;;;;;13.30;4.80;;;;;;;;;;6248470;28;20049;-64
2022/12/29 02:45:49;;;;;;;11.10;4.70;;;;;;;;;;6241953;28;20415;-64
2022/12/29 02:49:08;;;;;;;13.93;6.03;;;;;;;;;;6242981;28;20055;-64
2022/12/29 02:52:19;;;;;;;13.88;5.13;;;;;;;;;;6242772;28;20617;-64
2022/12/29 02:55:20;;;;;;;12.77;5.72;;;;;;;;;;6241942;28;20042;-64
2022/12/29 02:58:22;;;;;;;16.25;6.07;;;;;;;;;;6242465;28;20149;-66
2022/12/29 03:01:37;;;;;;;13.75;5.65;;;;;;;;;;6257048;28;20048;-64
2022/12/29 03:04:54;;;;;;;14.43;5.50;;;;;;;;;;6249312;28;20053;-64
2022/12/29 03:08:54;;;;;;;13.18;5.45;;;;;;;;;;6218516;28;20054;-64
2022/12/29 03:12:12;;;;;;;15.73;5.57;;;;;;;;;;6209909;28;20080;-64
2022/12/29 03:18:59;;;;;;;18.35;6.07;;;;;;;;;;6246813;28;20041;-64
2022/12/29 03:25:29;;;;;;;15.85;5.60;;;;;;;;;;6241986;28;20063;-65
2022/12/29 03:28:35;;;;;;;16.52;5.90;;;;;;;;;;6241410;28;20044;-65
2022/12/29 03:31:37;;;;;;;18.88;6.47;;;;;;;;;;6247027;28;20133;-64
2022/12/29 03:34:39;;;;;;;13.32;6.38;;;;;;;;;;6242255;28;20058;-65
2022/12/29 03:37:45;;;;;;;16.00;6.53;;;;;;;;;;6243385;28;20507;-64
2022/12/29 03:40:53;;;;;;;14.65;6.65;;;;;;;;;;6240986;28;20830;-64
2022/12/29 03:43:54;;;;;;;17.92;6.35;;;;;;;;;;6244676;28;20049;-64
2022/12/29 03:46:54;;;;;;;19.00;6.85;;;;;;;;;;6243470;28;20072;-64
2022/12/29 03:49:55;;;;;;;15.68;6.55;;;;;;;;;;6238314;28;20037;-64
2022/12/29 03:52:56;;;;;;;17.35;6.13;;;;;;;;;;6239254;28;21354;-64
2022/12/29 03:55:56;;;;;;;19.75;7.25;;;;;;;;;;6240264;28;20046;-64
2022/12/29 03:58:57;;;;;;;14.18;6.72;;;;;;;;;;6239988;28;20037;-64
2022/12/29 04:01:57;;;;;;;18.92;8.07;;;;;;;;;;6247133;28;20046;-64
2022/12/29 04:04:58;;;;;;;18.30;8.07;;;;;;;;;;6266726;28;20403;-64
2022/12/29 04:07:59;;;;;;;17.70;7.85;;;;;;;;;;6244944;28;20044;-65
2022/12/29 04:11:00;;;;;;;19.58;7.72;;;;;;;;;;6245532;28;20057;-64
2022/12/29 04:14:00;;;;;;;15.68;7.93;;;;;;;;;;6243445;28;20049;-64
2022/12/29 04:17:01;;;;;;;19.88;10.00;;;;;;;;;;6241312;28;20061;-65
2022/12/29 04:23:21;;;;;;;20.77;10.68;;;;;;;;;;6239498;28;20052;-64
2022/12/29 04:26:21;;;;;;;18.17;9.15;;;;;;;;;;6237765;28;20050;-64
2022/12/29 04:29:22;;;;;;;18.98;8.98;;;;;;;;;;6241667;28;20060;-64
2022/12/29 04:32:23;;;;;;;19.55;8.07;;;;;;;;;;6241613;28;20033;-64
2022/12/29 04:35:23;;;;;;;17.52;8.13;;;;;;;;;;6241639;28;20044;-64
2022/12/29 04:38:24;;;;;;;20.65;8.95;;;;;;;;;;6238938;28;20469;-64
2022/12/29 04:41:25;;;;;;;17.42;8.13;;;;;;;;;;6243745;28;20112;-64
2022/12/29 04:44:26;;;;;;;20.85;11.38;;;;;;;;;;6242206;28;20048;-64
2022/12/29 04:47:26;;;;;;;22.70;9.18;;;;;;;;;;6240989;28;20046;-64
2022/12/29 04:50:27;;;;;;;20.85;7.40;;;;;;;;;;6241498;28;20057;-64
2022/12/29 04:53:29;;;;;;;17.20;7.00;;;;;;;;;;6241289;28;20045;-66
2022/12/29 04:56:29;;;;;;;18.55;7.75;;;;;;;;;;6240757;28;20053;-64
2022/12/29 04:59:30;;;;;;;24.55;9.07;;;;;;;;;;6238007;28;20565;-64
2022/12/29 05:02:31;;;;;;;30.90;10.25;;;;;;;;;;6243544;28;20048;-63
2022/12/29 05:05:31;;;;;;;32.70;10.70;;;;;;;;;;6259028;28;20059;-64
2022/12/29 05:08:32;;;;;;;28.60;9.77;;;;;;;;;;6243368;28;20056;-64
2022/12/29 05:11:35;;;;;;;17.48;7.97;;;;;;;;;;6240589;28;20056;-64
2022/12/29 05:14:35;;;;;;;17.48;6.95;;;;;;;;;;6239549;28;20048;-64
2022/12/29 05:17:36;;;;;;;18.35;7.13;;;;;;;;;;6247842;28;20095;-64
2022/12/29 05:20:37;;;;;;;19.73;8.45;;;;;;;;;;6244293;28;20057;-63
2022/12/29 05:23:37;;;;;;;23.30;9.20;;;;;;;;;;6246113;28;20073;-63
2022/12/29 05:26:38;;;;;;;27.25;10.43;;;;;;;;;;6246558;28;20061;-63
2022/12/29 05:29:39;;;;;;;34.35;16.20;;;;;;;;;;6245621;28;20053;-64
2022/12/29 05:32:39;;;;;;;20.45;9.00;;;;;;;;;;6238911;28;20049;-63
2022/12/29 05:35:40;;;;;;;16.88;7.38;;;;;;;;;;6244825;28;20139;-63
2022/12/29 05:38:41;;;;;;;17.90;7.28;;;;;;;;;;6245935;28;20458;-66
2022/12/29 05:41:41;;;;;;;15.85;6.50;;;;;;;;;;6260143;28;20131;-64
2022/12/29 05:44:42;;;;;;;17.25;6.85;;;;;;;;;;6270122;28;20095;-64
2022/12/29 05:47:43;;;;;;;20.67;7.00;;;;;;;;;;6255497;28;20045;-64
2022/12/29 05:50:47;;;;;;;15.73;6.75;;;;;;;;;;6247461;28;20041;-63
2022/12/29 05:53:48;;;;;;;16.63;6.30;;;;;;;;;;6245164;28;20045;-64
2022/12/29 05:56:49;;;;;;;18.40;7.43;;;;;;;;;;6231499;28;20069;-64
2022/12/29 05:59:50;;;;;;;13.60;6.03;;;;;;;;;;6247096;28;20434;-68
2022/12/29 06:02:51;;;;;;;15.60;5.78;;;;;;;;;;6238435;28;20075;-64
2022/12/29 06:05:51;;;;;;;13.00;5.45;;;;;;;;;;6255426;28;20045;-64
2022/12/29 06:08:52;;;;;;;14.68;5.85;;;;;;;;;;6247695;28;20037;-64
2022/12/29 06:11:52;;;;;;;13.27;6.00;;;;;;;;;;6243834;28;20499;-63
2022/12/29 06:14:53;;;;;;;16.02;6.18;;;;;;;;;;6245259;28;20050;-64
2022/12/29 06:17:53;;;;;;;13.02;5.88;;;;;;;;;;6247217;28;20107;-64
2022/12/29 06:20:54;;;;;;;11.95;5.60;;;;;;;;;;6246932;28;20057;-64
2022/12/29 06:23:55;;;;;;;12.13;5.82;;;;;;;;;;6250531;28;20080;-64
2022/12/29 06:26:55;;;;;;;12.50;6.03;;;;;;;;;;6265171;28;20499;-65
2022/12/29 06:29:56;;;;;;;17.15;6.70;;;;;;;;;;6239245;28;20132;-65
2022/12/29 06:32:58;;;;;;;13.80;5.32;;;;;;;;;;6242954;28;20053;-64
2022/12/29 06:35:59;;;;;;;;;;;;;;;;;;6243262;28;20093;-64
2022/12/29 06:39:00;;;;;;;11.70;5.00;;;;;;;;;;6243732;28;19921;-64
2022/12/29 06:42:01;;;;;;;15.00;5.43;;;;;;;;;;6244015;28;20084;-64
2022/12/29 06:45:02;;;;;;;13.23;5.63;;;;;;;;;;6244160;28;20045;-63
2022/12/29 06:48:02;;;;;;;14.23;5.90;;;;;;;;;;6246859;28;20049;-64
2022/12/29 06:51:03;;;;;;;12.63;6.22;;;;;;;;;;6245047;28;20128;-64
2022/12/29 06:54:04;;;;;;;14.68;5.95;;;;;;;;;;6240702;28;20518;-64
2022/12/29 06:57:04;;;;;;;13.80;6.97;;;;;;;;;;6245752;28;20057;-64
2022/12/29 07:00:06;;;;;;;14.45;5.60;;;;;;;;;;6245119;28;20045;-65
2022/12/29 07:03:06;;;;;;;17.00;5.38;;;;;;;;;;6242903;28;20042;-64
2022/12/29 07:06:07;;;;;;;15.68;6.60;;;;;;;;;;6242497;28;20049;-64
2022/12/29 07:09:08;;;;;;;16.45;6.40;;;;;;;;;;6248915;28;20396;-64
2022/12/29 07:12:09;;;;;;;13.63;5.82;;;;;;;;;;6240663;28;20049;-64
2022/12/29 07:15:12;;;;;;;13.93;6.63;;;;;;;;;;6238995;28;20054;-65
2022/12/29 07:18:13;;;;;;;15.10;6.07;;;;;;;;;;6247011;28;20071;-64
2022/12/29 07:21:13;;;;;;;16.35;6.10;;;;;;;;;;6249912;28;20049;-65
2022/12/29 07:24:14;;;;;;;15.18;6.53;;;;;;;;;;6249647;28;20125;-64
2022/12/29 07:27:16;;;;;;;19.17;7.27;;;;;;;;;;6254744;28;20054;-65
2022/12/29 07:30:16;;;;;;;15.82;6.57;;;;;;;;;;6241978;28;20458;-64
2022/12/29 07:33:17;;;;;;;14.43;6.25;;;;;;;;;;6238218;28;20080;-64
2022/12/29 07:36:18;;;;;;;15.82;5.72;;;;;;;;;;6242053;28;20051;-64
2022/12/29 07:39:18;;;;;;;14.48;6.38;;;;;;;;;;6255836;28;20053;-64
2022/12/29 07:42:19;;;;;;;17.50;6.55;;;;;;;;;;6255496;28;20537;-61
2022/12/29 07:45:19;;;;;;;15.10;6.57;;;;;;;;;;6245632;28;20049;-61
2022/12/29 07:48:21;;;;;;;15.48;6.18;;;;;;;;;;6251899;28;20053;-61
2022/12/29 07:51:21;;;;;;;18.30;6.83;;;;;;;;;;6255433;28;20120;-61
2022/12/29 07:54:23;;;;;;;16.42;8.10;;;;;;;;;;6252052;28;20135;-60
2022/12/29 07:57:23;;;;;;;15.77;6.63;;;;;;;;;;6254185;28;20741;-61
2022/12/29 08:00:24;;;;;;;15.73;6.68;;;;;;;;;;6256628;28;20049;-61
2022/12/29 08:03:25;;;;;;;15.05;6.90;;;;;;;;;;6265647;28;20051;-61
2022/12/29 08:06:26;;;;;;;17.73;6.47;;;;;;;;;;6265114;28;20489;-63
2022/12/29 08:09:27;;;;;;;18.08;7.10;;;;;;;;;;6267509;28;20051;-64
2022/12/29 08:12:27;;;;;;;18.92;8.10;;;;;;;;;;6267712;28;20057;-61
2022/12/29 08:15:28;;;;;;;15.38;7.43;;;;;;;;;;6266556;28;20044;-61
2022/12/29 08:18:28;;;;;;;19.20;7.75;;;;;;;;;;6267059;28;20476;-61
2022/12/29 08:21:29;;;;;;;18.83;7.35;;;;;;;;;;6256863;28;20047;-61
2022/12/29 08:24:30;;;;;;;20.67;7.55;;;;;;;;;;6249524;28;20152;-61
2022/12/29 08:27:30;;;;;;;17.58;8.20;;;;;;;;;;6267365;28;20057;-60
2022/12/29 08:30:31;;;;;;;17.25;7.78;;;;;;;;;;6253667;28;20136;-61
2022/12/29 08:33:32;;;;;;;19.05;8.43;;;;;;;;;;6262536;28;20060;-65
2022/12/29 08:36:32;;;;;;;22.65;10.13;;;;;;;;;;6247209;28;20073;-65
2022/12/29 08:39:34;;;;;;;18.60;8.82;;;;;;;;;;6253407;28;20046;-62
2022/12/29 08:42:34;;;;;;;19.85;8.95;;;;;;;;;;6259980;28;20056;-61
2022/12/29 08:45:35;;;;;;;20.48;9.15;;;;;;;;;;6265013;28;20065;-62
2022/12/29 08:48:36;;;;;;;18.73;7.60;;;;;;;;;;6266640;28;20045;-62
2022/12/29 08:51:36;;;;;;;15.93;7.57;;;;;;;;;;6265576;28;20482;-62
2022/12/29 08:54:37;;;;;;;18.27;7.15;;;;;;;;;;6259944;28;20076;-62
2022/12/29 08:57:37;;;;;;;16.45;7.47;;;;;;;;;;6263813;28;20403;-62
2022/12/29 09:00:38;;;;;;;18.75;8.40;;;;;;;;;;6252437;28;20488;-63
2022/12/29 09:03:39;;;;;;;17.08;7.07;;;;;;;;;;6261336;28;20056;-62
2022/12/29 09:06:39;;;;;;;14.93;7.70;;;;;;;;;;6221228;28;20068;-62
2022/12/29 09:09:40;;;;;;;16.80;7.22;;;;;;;;;;6232028;28;20053;-61
2022/12/29 09:12:41;;;;;;;15.95;7.07;;;;;;;;;;6233897;28;20064;-62
2022/12/29 09:15:42;;;;;;;18.05;6.47;;;;;;;;;;6243870;28;20054;-63
2022/12/29 09:18:44;;;;;;;20.08;7.07;;;;;;;;;;6231618;28;20549;-62
2022/12/29 09:21:44;;;;;;;15.43;6.05;;;;;;;;;;6234092;28;20058;-64
2022/12/29 09:24:46;;;;;;;18.23;7.20;;;;;;;;;;6231356;28;20038;-64
2022/12/29 09:27:52;;;;;;;15.02;7.57;;;;;;;;;;6233532;28;20049;-66
2022/12/29 09:30:53;;;;;;;14.25;6.65;;;;;;;;;;6232469;28;20065;-61
2022/12/29 09:33:53;;;;;;;17.17;8.57;;;;;;;;;;6225735;28;20065;-61
2022/12/29 09:36:56;;;;;;;17.67;7.57;;;;;;;;;;6229244;28;20329;-61
2022/12/29 09:39:56;;;;;;;15.85;7.40;;;;;;;;;;6229001;28;20135;-61
2022/12/29 09:43:40;;;;;;;17.13;7.78;;;;;;;;;;6232698;28;20053;-61
2022/12/29 09:46:45;;;;;;;18.95;7.25;;;;;;;;;;6221121;28;20053;-62
2022/12/29 09:49:52;;;;;;;19.02;7.95;;;;;;;;;;6231601;28;20427;-64
2022/12/29 09:53:11;;;;;;;18.10;8.75;;;;;;;;;;6231698;28;20188;-61
2022/12/29 09:56:21;;;;;;;18.40;6.85;;;;;;;;;;6230108;28;20057;-63
2022/12/29 09:59:40;;;;;;;17.88;6.93;;;;;;;;;;6231749;28;20124;-65
2022/12/29 10:02:45;;;;;;;14.05;6.57;;;;;;;;;;6234921;28;20053;-61
2022/12/29 10:05:53;;;;;;;15.85;6.60;;;;;;;;;;6231533;28;20053;-63
2022/12/29 10:09:08;;;;;;;18.25;6.63;;;;;;;;;;6236463;28;20068;-62
2022/12/29 10:12:09;;;;;;;15.00;6.82;;;;;;;;;;6237177;28;20081;-62
2022/12/29 10:15:36;;;;;;;17.40;6.55;;;;;;;;;;6234683;28;20499;-64
2022/12/29 10:18:52;;;;;;;14.75;6.30;;;;;;;;;;6233451;28;20176;-64
2022/12/29 10:21:53;;;;;;;15.15;7.15;;;;;;;;;;6229969;28;20049;-65
2022/12/29 10:24:55;;;;;;;21.83;7.53;;;;;;;;;;6233044;28;20053;-61
2022/12/29 10:28:01;;;;;;;17.10;6.93;;;;;;;;;;6236009;28;20053;-61
2022/12/29 10:31:05;;;;;;;14.95;6.80;;;;;;;;;;6236401;28;20065;-62
2022/12/29 10:34:25;;;;;;;16.20;6.88;;;;;;;;;;6233989;28;20053;-62
2022/12/29 10:37:34;;;;;;;16.00;7.15;;;;;;;;;;6236260;28;20076;-64
2022/12/29 10:41:39;;;;;;;19.70;8.32;;;;;;;;;;6235476;28;20052;-64
2022/12/29 10:44:40;;;;;;;17.75;7.63;;;;;;;;;;6177587;28;20068;-69
2022/12/29 10:47:53;;;;;;;16.77;7.13;;;;;;;;;;6236710;28;20061;-66
2022/12/29 10:50:57;;;;;;;15.48;6.72;;;;;;;;;;6235790;28;20056;-66
2022/12/29 10:54:05;;;;;;;17.13;7.13;;;;;;;;;;6231666;28;20059;-66
2022/12/29 10:57:16;;;;;;;16.52;6.80;;;;;;;;;;6235640;28;20045;-68
2022/12/29 11:00:20;;;;;;;16.00;6.65;;;;;;;;;;6237890;28;20044;-68
2022/12/29 11:03:41;;;;;;;15.20;6.78;;;;;;;;;;6237647;28;20049;-66
2022/12/29 11:06:43;;;;;;;17.98;6.60;;;;;;;;;;6236426;28;20054;-64
2022/12/29 11:09:45;;;;;;;16.20;6.78;;;;;;;;;;6238540;28;20061;-65
2022/12/29 11:13:10;;;;;;;17.23;6.75;;;;;;;;;;6231654;28;20041;-65
2022/12/29 11:16:11;;;;;;;16.92;6.78;;;;;;;;;;6233288;28;20057;-66
2022/12/29 11:19:21;;;;;;;16.67;7.25;;;;;;;;;;6232930;28;20080;-64
2022/12/29 11:22:25;;;;;;;16.27;6.95;;;;;;;;;;6238827;28;20798;-65
2022/12/29 11:25:26;;;;;;;18.23;8.25;;;;;;;;;;6237021;28;20057;-65
2022/12/29 11:28:30;;;;;;;17.80;7.35;;;;;;;;;;6237658;28;20046;-66
2022/12/29 11:31:39;;;;;;;17.17;7.03;;;;;;;;;;6237993;28;20055;-67
2022/12/29 11:34:39;;;;;;;19.45;8.02;;;;;;;;;;6235515;28;20073;-68
2022/12/29 11:37:40;;;;;;;18.75;7.53;;;;;;;;;;6238114;28;20503;-64
2022/12/29 11:40:41;;;;;;;18.00;7.75;;;;;;;;;;6237297;28;20111;-66
2022/12/29 11:43:44;;;;;;;22.85;8.45;;;;;;;;;;6236422;28;20069;-63
2022/12/29 11:46:50;;;;;;;18.20;8.02;;;;;;;;;;6234291;28;20069;-64
2022/12/29 11:49:59;;;;;;;20.33;8.57;;;;;;;;;;6236106;28;20053;-66
2022/12/29 11:53:05;;;;;;;19.42;7.47;;;;;;;;;;6236156;28;20059;-65
2022/12/29 11:56:10;;;;;;;18.65;8.30;;;;;;;;;;6230483;28;20447;-65
2022/12/29 11:59:55;;;;;;;17.42;8.20;;;;;;;;;;6235533;28;20049;-66
2022/12/29 12:03:07;;;;;;;18.95;7.65;;;;;;;;;;6235663;28;20084;-66
2022/12/29 12:06:15;;;;;;;16.20;7.65;;;;;;;;;;6232085;28;20049;-65
2022/12/29 12:09:29;;;;;;;20.48;7.82;;;;;;;;;;6236005;28;20103;-66
2022/12/29 12:12:43;;;;;;;17.27;7.43;;;;;;;;;;6234153;28;20057;-64
2022/12/29 12:15:49;;;;;;;19.48;8.38;;;;;;;;;;6232960;28;20049;-63
2022/12/29 12:19:24;;;;;;;18.35;7.90;;;;;;;;;;6234555;28;20049;-63
2022/12/29 12:22:32;;;;;;;19.55;7.38;;;;;;;;;;6232441;28;21005;-67
2022/12/29 12:25:43;;;;;;;16.83;7.72;;;;;;;;;;6229250;28;20170;-64
2022/12/29 12:28:57;;;;;;;18.92;8.50;;;;;;;;;;6233703;28;20760;-64
2022/12/29 12:32:04;;;;;;;18.13;8.50;;;;;;;;;;6234506;28;20095;-62
2022/12/29 12:35:05;;;;;;;17.60;7.57;;;;;;;;;;6228790;28;20057;-60
2022/12/29 12:38:21;;;;;;;18.13;7.20;;;;;;;;;;6233465;28;20066;-59
2022/12/29 12:41:53;;;;;;;17.83;7.65;;;;;;;;;;6234522;28;20423;-59
2022/12/29 12:45:03;;;;;;;18.30;8.18;;;;;;;;;;6230551;28;20411;-62
2022/12/29 12:48:17;;;;;;;20.00;9.05;;;;;;;;;;6232161;28;20069;-62
2022/12/29 12:51:33;;;;;;;21.92;9.18;;;;;;;;;;6233019;28;20168;-65
2022/12/29 12:54:53;;;;;;;18.52;8.82;;;;;;;;;;6229154;28;21424;-67
2022/12/29 12:57:59;;;;;;;18.90;8.75;;;;;;;;;;6231340;28;20123;-61
2022/12/29 13:01:00;;;;;;;19.27;8.93;;;;;;;;;;6234479;28;20041;-61
2022/12/29 13:04:39;;;;;;;21.05;9.13;;;;;;;;;;6233051;28;20049;-64
2022/12/29 13:08:00;;;;;;;25.08;9.75;;;;;;;;;;6233956;28;20390;-63
2022/12/29 13:11:06;;;;;;;20.02;8.77;;;;;;;;;;6234257;28;20041;-60
2022/12/29 13:14:12;;;;;;;26.52;10.32;;;;;;;;;;6233869;28;20061;-61
2022/12/29 13:17:24;;;;;;;48.95;25.13;;;;;;;;;;6233753;28;20084;-60
2022/12/29 13:20:44;;;;;;;;;;;;;;;;;;6233172;28;20053;-60
2022/12/29 13:24:14;;;;;;;21.83;9.93;;;;;;;;;;6230899;28;19935;-61
2022/12/29 13:27:29;;;;;;;22.33;9.98;;;;;;;;;;6229307;28;20470;-59
2022/12/29 13:30:39;;;;;;;22.73;9.80;;;;;;;;;;6232399;28;20053;-71
2022/12/29 13:34:05;;;;;;;23.13;10.40;;;;;;;;;;6230481;28;20076;-62
2022/12/29 13:37:13;;;;;;;32.42;13.07;;;;;;;;;;6235256;28;20056;-61
2022/12/29 13:40:18;;;;;;;31.83;12.93;;;;;;;;;;6231886;28;20052;-59
2022/12/29 13:43:21;;;;;;;26.15;11.85;;;;;;;;;;6237853;28;20945;-60
2022/12/29 13:46:33;;;;;;;24.58;12.48;;;;;;;;;;6235375;28;20144;-61
2022/12/29 13:49:34;;;;;;;27.40;10.68;;;;;;;;;;6235494;28;20057;-59
2022/12/29 13:52:37;;;;;;;25.07;10.37;;;;;;;;;;6236469;28;20123;-59
2022/12/29 13:55:49;;;;;;;29.17;12.88;;;;;;;;;;6235597;28;20513;-60
2022/12/29 13:58:58;;;;;;;24.63;10.80;;;;;;;;;;6236476;28;20045;-61
2022/12/29 14:02:25;;;;;;;28.42;12.07;;;;;;;;;;6235811;28;20290;-60
2022/12/29 14:05:29;;;;;;;21.20;10.40;;;;;;;;;;6235263;28;20045;-64
2022/12/29 14:08:34;;;;;;;20.30;9.18;;;;;;;;;;6235736;28;20103;-64
2022/12/29 14:11:37;;;;;;;22.27;10.85;;;;;;;;;;6236702;28;20049;-64
2022/12/29 14:14:41;;;;;;;23.75;11.65;;;;;;;;;;6231701;28;20971;-62
2022/12/29 14:17:43;;;;;;;23.10;12.75;;;;;;;;;;6221687;28;20053;-62
2022/12/29 14:20:57;;;;;;;26.50;13.20;;;;;;;;;;6231667;28;20057;-65
2022/12/29 14:24:35;;;;;;;23.80;9.93;;;;;;;;;;6226249;28;20077;-64
2022/12/29 14:27:43;;;;;;;23.85;9.88;;;;;;;;;;6226918;28;20056;-69
2022/12/29 14:30:53;;;;;;;27.10;12.20;;;;;;;;;;6230443;28;20466;-61
2022/12/29 14:34:25;;;;;;;21.48;10.30;;;;;;;;;;6226703;28;20060;-67
2022/12/29 14:37:35;;;;;;;25.00;10.38;;;;;;;;;;6231195;28;20428;-72
2022/12/29 14:40:35;;;;;;;29.60;12.38;;;;;;;;;;6231841;28;20046;-71
2022/12/29 14:43:36;;;;;;;24.13;10.43;;;;;;;;;;6230049;28;20083;-76
2022/12/29 14:46:47;;;;;;;28.05;11.00;;;;;;;;;;6232426;28;20069;-70
2022/12/29 14:49:48;;;;;;;19.90;8.93;;;;;;;;;;6234770;28;20053;-69
2022/12/29 14:52:59;;;;;;;22.08;10.40;;;;;;;;;;6232005;28;20064;-72
2022/12/29 14:56:00;;;;;;;22.90;9.90;;;;;;;;;;6230760;28;20057;-75
2022/12/29 14:59:02;;;;;;;25.75;10.27;;;;;;;;;;6233036;28;20122;-75
2022/12/29 15:02:15;;;;;;;30.77;12.10;;;;;;;;;;6247738;28;20408;-75
2022/12/29 15:05:46;;;;;;;25.27;10.40;;;;;;;;;;6225524;28;20057;-66
2022/12/29 15:09:06;;;;;;;19.48;9.27;;;;;;;;;;6224905;28;20049;-70
2022/12/29 15:12:15;;;;;;;23.67;10.68;;;;;;;;;;6229364;28;20127;-77
2022/12/29 15:15:23;;;;;;;53.42;24.95;;;;;;;;;;6228945;28;20060;-72
2022/12/29 15:18:32;;;;;;;32.75;16.42;;;;;;;;;;6231146;28;20057;-64
2022/12/29 15:21:35;;;;;;;43.80;18.70;;;;;;;;;;6228206;28;20053;-66
2022/12/29 15:24:42;;;;;;;42.65;18.30;;;;;;;;;;6226496;28;20662;-65
2022/12/29 15:27:49;;;;;;;41.53;17.30;;;;;;;;;;6228992;28;20054;-63
2022/12/29 15:31:16;;;;;;;27.75;12.93;;;;;;;;;;6230279;28;20060;-63
2022/12/29 15:34:20;;;;;;;22.83;12.02;;;;;;;;;;6224441;28;20582;-65
2022/12/29 15:37:24;;;;;;;19.33;9.50;;;;;;;;;;6229416;28;20427;-63
2022/12/29 15:40:30;;;;;;;22.40;11.73;;;;;;;;;;6229803;28;20045;-68
2022/12/29 15:43:42;;;;;;;20.88;10.98;;;;;;;;;;6223104;28;20132;-66
2022/12/29 15:46:44;;;;;;;35.60;18.58;;;;;;;;;;6225736;28;20080;-60
2022/12/29 15:49:52;;;;;;;49.08;25.42;;;;;;;;;;6227920;28;20262;-68
2022/12/29 15:52:56;;;;;;;33.10;15.52;;;;;;;;;;6226927;28;20053;-71
2022/12/29 15:56:05;;;;;;;33.35;16.13;;;;;;;;;;6223949;28;20041;-64
2022/12/29 15:59:23;;;;;;;28.08;13.82;;;;;;;;;;6227477;28;20081;-63
2022/12/29 16:02:24;;;;;;;20.65;10.45;;;;;;;;;;6228315;28;20049;-62
2022/12/29 16:05:35;;;;;;;25.80;12.45;;;;;;;;;;6227940;28;20606;-60
2022/12/29 16:08:39;;;;;;;27.98;13.30;;;;;;;;;;6228711;28;20138;-69
2022/12/29 16:11:53;;;;;;;29.83;13.95;;;;;;;;;;6227227;28;20065;-72
2022/12/29 16:15:12;;;;;;;33.92;15.80;;;;;;;;;;6228570;28;20049;-67
2022/12/29 16:18:25;;;;;;;40.38;19.27;;;;;;;;;;6230238;28;20045;-69
2022/12/29 16:21:32;;;;;;;37.13;17.50;;;;;;;;;;6230171;28;20046;-61
2022/12/29 16:24:33;;;;;;;64.03;31.50;;;;;;;;;;6227438;28;20045;-63
2022/12/29 16:27:42;;;;;;;40.65;21.67;;;;;;;;;;6229364;28;20103;-63
2022/12/29 16:30:42;;;;;;;58.33;25.08;;;;;;;;;;6229583;28;20069;-60
2022/12/29 16:33:47;;;;;;;67.65;22.02;;;;;;;;;;6224322;28;20615;-72
2022/12/29 16:36:57;;;;;;;89.13;25.15;;;;;;;;;;6228514;28;20511;-60
2022/12/29 16:40:17;;;;;;;43.53;15.57;;;;;;;;;;6228900;28;20271;-69
2022/12/29 16:43:41;;;;;;;61.83;21.05;;;;;;;;;;6227530;28;20575;-67
2022/12/29 16:46:57;;;;;;;37.58;14.77;;;;;;;;;;6229092;28;20049;-63
2022/12/29 16:50:11;;;;;;;44.70;16.13;;;;;;;;;;6229888;28;20088;-63
2022/12/29 16:53:31;;;;;;;53.88;19.30;;;;;;;;;;6230428;28;20504;-61
2022/12/29 16:56:34;;;;;;;56.75;20.17;;;;;;;;;;6229759;28;20053;-66
2022/12/29 16:59:38;;;;;;;45.78;19.17;;;;;;;;;;6229913;28;20049;-59
2022/12/29 17:02:44;;;;;;;33.38;13.60;;;;;;;;;;6228873;28;20087;-58
2022/12/29 17:05:44;;;;;;;34.58;15.18;;;;;;;;;;6227991;28;20049;-59
2022/12/29 17:08:46;;;;;;;30.83;15.80;;;;;;;;;;6229088;28;20065;-66
2022/12/29 17:11:55;;;;;;;21.92;10.95;;;;;;;;;;6229012;28;20069;-74
2022/12/29 17:15:01;;;;;;;24.95;11.73;;;;;;;;;;6226878;28;20049;-65
2022/12/29 17:18:02;;;;;;;21.90;10.57;;;;;;;;;;6227910;28;20056;-67
2022/12/29 17:21:03;;;;;;;23.38;10.50;;;;;;;;;;6229021;28;20408;-61
2022/12/29 17:24:05;;;;;;;22.50;9.60;;;;;;;;;;6228546;28;20131;-62
2022/12/29 17:27:06;;;;;;;31.15;13.70;;;;;;;;;;6228822;28;20056;-60
2022/12/29 17:30:19;;;;;;;28.13;13.45;;;;;;;;;;6228791;28;20115;-60
2022/12/29 17:33:21;;;;;;;42.42;22.08;;;;;;;;;;6229068;28;21503;-60
2022/12/29 17:36:21;;;;;;;22.13;10.40;;;;;;;;;;6226480;28;20046;-60
2022/12/29 17:39:22;;;;;;;21.60;10.48;;;;;;;;;;6228303;28;20112;-60
2022/12/29 17:42:22;;;;;;;30.27;11.35;;;;;;;;;;6228980;28;20046;-60
2022/12/29 17:45:26;;;;;;;25.83;10.85;;;;;;;;;;6227445;28;20099;-62
2022/12/29 17:48:26;;;;;;;26.70;10.60;;;;;;;;;;6229404;28;20053;-62
2022/12/29 17:51:27;;;;;;;25.73;10.18;;;;;;;;;;6228576;28;20159;-62
2022/12/29 17:54:28;;;;;;;24.13;10.95;;;;;;;;;;6226829;28;20408;-60
2022/12/29 17:57:28;;;;;;;24.15;10.88;;;;;;;;;;6227964;28;20046;-60
2022/12/29 18:00:29;;;;;;;27.15;11.68;;;;;;;;;;6228734;28;21079;-60
2022/12/29 18:03:39;;;;;;;29.63;13.60;;;;;;;;;;6227697;28;20060;-63
2022/12/29 18:06:40;;;;;;;27.58;11.63;;;;;;;;;;6229402;28;20647;-64
2022/12/29 18:09:41;;;;;;;25.17;11.98;;;;;;;;;;6228426;28;20104;-61
2022/12/29 18:12:47;;;;;;;25.60;12.30;;;;;;;;;;6228158;28;20045;-60
2022/12/29 18:15:48;;;;;;;27.33;12.15;;;;;;;;;;6227705;28;20050;-60
2022/12/29 18:18:48;;;;;;;29.75;13.48;;;;;;;;;;6229647;28;20506;-62
2022/12/29 18:21:49;;;;;;;27.30;12.63;;;;;;;;;;6233499;28;20045;-60
2022/12/29 18:24:50;;;;;;;37.33;18.02;;;;;;;;;;6233222;28;20812;-61
2022/12/29 18:27:51;;;;;;;39.30;18.45;;;;;;;;;;6228191;28;20062;-61
2022/12/29 18:30:53;;;;;;;38.67;15.98;;;;;;;;;;6234589;28;20143;-61
2022/12/29 18:33:56;;;;;;;41.80;17.60;;;;;;;;;;6232818;28;20065;-61
2022/12/29 18:36:58;;;;;;;39.78;17.77;;;;;;;;;;6233374;28;20049;-64
2022/12/29 18:39:59;;;;;;;34.58;15.80;;;;;;;;;;6235272;28;20103;-60
2022/12/29 18:42:59;;;;;;;36.17;15.98;;;;;;;;;;6236004;28;21466;-59
2022/12/29 18:46:01;;;;;;;33.00;14.90;;;;;;;;;;6233368;28;20427;-61
2022/12/29 18:49:01;;;;;;;33.53;15.15;;;;;;;;;;6233240;28;20057;-65
2022/12/29 18:52:02;;;;;;;40.15;17.52;;;;;;;;;;6234451;28;20424;-61